Aeroporto :
LOGIN :

Iscrizione | Disclaimer

   EN    FR    IT 

 










Sommario :    VFR   VFR Marginale   IFR   IFR Intensivo   IFR Molto Intensivo
Visibilità : 
Base nubi : 
>= 8 km
>= 3000ft
5 / 8 km
1000 / 3000 ft
1500m / 5 km
500 / 1000 ft
800 / 1500m
200 / 500 ft
< 800m
< 200 ft
Simboli :   Temporali  Nebbia  Neve Forte  Precipitazioni Forti  Vento > 20 kt
SIGMETs :   Varie  Temporali  Ghiacco  Turbolenza  Onda orograficha  Ceneri Vulcaniche






- Altitudine del aeroporto : 121 ft
- Codice IATA : HUY


EGNJ - Humberside

ULTIMO METAR :
  • 180350Z AUTO 22015KT 9999 BKN032/// 04/01 Q1013

METARs OBSOLETI :
  • 180320Z AUTO 22015KT 9999 SCT028/// 04/01 Q1013
  • 180250Z AUTO 23015KT 9999 FEW032/// 05/01 Q1012
  • 180220Z AUTO 23016KT 9999 BKN032/// BKN037/// 05/00 Q1012
  • 180150Z AUTO 23017KT 9999 SCT032/// BKN040/// 05/00 Q1012
  • 180120Z AUTO 23021KT 9999 SCT030/// BKN035/// 05/00 Q1011

TAF TAF EGNJ
Valido dal 18 a 03 ore il 18 a 12 ore UTC


180159Z 1803/1812 24020KT 9999 SCT030
TEMPO 1803/1812 24020G30KT
PROB30
TEMPO 1809/1812 7000 SHRA
ATIS : +44 1652 682 020



MetMap, La meteo Aeronautica in un colpo d'occhio ! - Copyright ORBIFLY Dicembre 2007 - Disclaimer

ORBIFLY MET'MAP TEAM :

Programmazione e sviluppo : Alexandra Zaïnal
Concezione : Baudouin d'Aumeries
Aiuto per la programmazione : Marc-Olivier Méhu
Supporto tecnico e logistico : Manuel Goepfert
Aiuto per la traduzione : Arnaldo La Scala

Contatto : metmap@orbifly.com




FONTI E CREDITI :

   NOAA